Time;durP1;ratioP1;P1;durP2;ratioP2;P2;SDS_P1;SDS_P2;PMS_P1;PMS_P2;Temp;Humidity;BMP_temperature;BMP_pressure;BME280_temperature;BME280_humidity;BME280_pressure;Samples;Min_cycle;Max_cycle;Signal;HPM_P1;HPM_P2
2022/07/18 00:01:43;;;;;;;2.13;0.70;;;15.40;99.90;;;;;;5012690;28;20084;-74
2022/07/18 00:04:09;;;;;;;2.35;0.82;;;15.40;99.90;;;;;;5019380;28;20025;-74
2022/07/18 00:06:35;;;;;;;2.60;1.08;;;15.40;99.90;;;;;;5017294;28;20121;-74
2022/07/18 00:09:01;;;;;;;1.63;0.60;;;15.40;99.90;;;;;;5019374;28;20029;-75
2022/07/18 00:11:26;;;;;;;3.40;0.73;;;15.40;99.90;;;;;;5019132;28;20037;-76
2022/07/18 00:13:52;;;;;;;3.40;0.80;;;15.30;99.90;;;;;;5018857;28;20528;-74
2022/07/18 00:16:18;;;;;;;2.78;0.98;;;15.30;99.90;;;;;;5018374;28;20033;-74
2022/07/18 00:18:44;;;;;;;1.58;0.60;;;15.20;99.90;;;;;;5018379;28;20080;-74
2022/07/18 00:21:10;;;;;;;2.08;0.60;;;15.30;99.90;;;;;;5011603;28;20037;-75
2022/07/18 00:23:36;;;;;;;4.25;0.70;;;15.20;99.90;;;;;;5018855;28;20032;-74
2022/07/18 00:26:02;;;;;;;3.65;0.80;;;15.10;99.90;;;;;;5009997;28;20038;-74
2022/07/18 00:28:28;;;;;;;2.58;1.00;;;15.10;99.90;;;;;;5018127;28;20091;-74
2022/07/18 00:30:53;;;;;;;2.65;0.77;;;15.10;99.90;;;;;;5016597;28;20025;-73
2022/07/18 00:33:19;;;;;;;2.72;0.73;;;15.00;99.90;;;;;;5016145;28;20417;-74
2022/07/18 00:35:45;;;;;;;2.00;0.88;;;15.00;99.90;;;;;;5017741;28;20038;-74
2022/07/18 00:38:11;;;;;;;4.32;0.75;;;15.00;99.90;;;;;;5017575;28;20064;-74
2022/07/18 00:40:37;;;;;;;2.00;0.70;;;14.90;99.90;;;;;;5016943;28;20053;-74
2022/07/18 00:43:02;;;;;;;1.95;0.75;;;14.90;99.90;;;;;;4999893;28;20662;-73
2022/07/18 00:45:28;;;;;;;1.67;0.70;;;14.80;99.90;;;;;;5017802;28;20078;-74
2022/07/18 00:47:54;;;;;;;3.90;0.90;;;14.80;99.90;;;;;;5009291;28;20030;-74
2022/07/18 00:50:21;;;;;;;2.38;0.70;;;14.80;99.90;;;;;;5018010;28;20025;-74
2022/07/18 00:52:47;;;;;;;2.80;0.80;;;14.70;99.90;;;;;;5015386;28;20095;-74
2022/07/18 00:55:14;;;;;;;3.05;0.90;;;14.70;99.90;;;;;;5017914;28;20025;-75
2022/07/18 00:57:40;;;;;;;2.90;0.80;;;14.70;99.90;;;;;;5016824;28;20554;-74
2022/07/18 01:02:57;;;;;;;2.67;0.88;;;14.70;99.90;;;;;;5019363;28;20501;-74
2022/07/18 01:05:23;;;;;;;3.05;0.98;;;14.70;99.90;;;;;;5019970;28;20030;-74
2022/07/18 01:07:51;;;;;;;2.17;0.80;;;14.60;99.90;;;;;;5014111;28;20041;-74
2022/07/18 01:10:17;;;;;;;2.03;0.98;;;14.60;99.90;;;;;;5020299;28;20376;-75
2022/07/18 01:12:44;;;;;;;1.67;0.70;;;14.50;99.90;;;;;;5020220;28;20733;-74
2022/07/18 01:15:10;;;;;;;3.33;0.85;;;14.50;99.90;;;;;;5013526;28;20025;-74
2022/07/18 01:17:36;;;;;;;2.42;0.93;;;14.40;99.90;;;;;;5020092;28;20042;-73
2022/07/18 01:20:03;;;;;;;3.03;0.80;;;14.40;99.90;;;;;;5021831;28;20036;-75
2022/07/18 01:22:28;;;;;;;2.40;0.70;;;14.40;99.90;;;;;;5021458;28;20036;-74
2022/07/18 01:24:54;;;;;;;2.50;0.88;;;14.40;99.90;;;;;;5019267;28;20025;-74
2022/07/18 01:27:21;;;;;;;2.03;0.70;;;14.40;99.90;;;;;;5021309;28;21138;-74
2022/07/18 01:29:49;;;;;;;2.15;0.77;;;14.40;99.90;;;;;;5019521;28;20033;-74
2022/07/18 01:32:15;;;;;;;1.83;0.70;;;14.30;99.90;;;;;;5020069;28;20485;-75
2022/07/18 01:34:41;;;;;;;1.65;0.70;;;14.30;99.90;;;;;;5004530;28;20109;-74
2022/07/18 01:37:07;;;;;;;1.80;0.75;;;14.30;99.90;;;;;;5002463;28;20029;-74
2022/07/18 01:39:33;;;;;;;1.83;0.60;;;14.20;99.90;;;;;;5020742;28;20021;-74
2022/07/18 01:42:02;;;;;;;1.85;0.80;;;14.20;99.90;;;;;;5019541;28;21736;-74
2022/07/18 01:44:29;;;;;;;2.85;0.60;;;14.20;99.90;;;;;;5020418;28;20036;-74
2022/07/18 01:46:55;;;;;;;2.25;0.75;;;14.10;99.90;;;;;;5012967;28;20091;-74
2022/07/18 01:49:21;;;;;;;2.92;0.88;;;14.10;99.90;;;;;;5000641;28;20394;-74
2022/07/18 01:51:49;;;;;;;3.83;1.00;;;14.00;99.90;;;;;;5002902;28;20035;-75
2022/07/18 01:54:14;;;;;;;2.35;0.90;;;14.00;99.90;;;;;;5017500;28;20041;-74
2022/07/18 01:56:40;;;;;;;2.85;0.95;;;14.00;99.90;;;;;;5019177;28;20103;-74
2022/07/18 01:59:06;;;;;;;2.75;0.75;;;14.00;99.90;;;;;;5003025;28;20486;-74
2022/07/18 02:01:32;;;;;;;3.35;0.95;;;14.00;99.90;;;;;;5019975;28;20040;-74
2022/07/18 02:03:57;;;;;;;4.15;1.00;;;14.00;99.90;;;;;;5027991;28;20040;-76
2022/07/18 02:06:23;;;;;;;2.65;0.60;;;13.90;99.90;;;;;;5023256;28;20024;-74
2022/07/18 02:08:49;;;;;;;2.85;0.70;;;13.90;99.90;;;;;;5019710;28;20025;-74
2022/07/18 02:11:14;;;;;;;2.15;0.98;;;13.80;99.90;;;;;;5018136;28;20033;-74
2022/07/18 02:13:40;;;;;;;2.20;0.95;;;13.80;99.90;;;;;;5019364;28;20048;-74
2022/07/18 02:16:06;;;;;;;4.00;0.77;;;13.80;99.90;;;;;;5018436;28;20030;-74
2022/07/18 02:18:32;;;;;;;4.03;0.90;;;13.70;99.90;;;;;;5008781;28;20033;-76
2022/07/18 02:21:02;;;;;;;2.35;0.85;;;13.70;99.90;;;;;;5018273;28;20087;-74
2022/07/18 02:23:27;;;;;;;1.77;0.80;;;13.70;99.90;;;;;;5018505;28;20453;-75
2022/07/18 02:25:53;;;;;;;2.67;0.80;;;13.60;99.90;;;;;;5002875;28;20037;-75
2022/07/18 02:28:19;;;;;;;2.85;0.80;;;13.60;99.90;;;;;;5020922;28;20474;-74
2022/07/18 02:30:45;;;;;;;2.33;0.88;;;13.60;99.90;;;;;;5008875;28;20061;-74
2022/07/18 02:33:11;;;;;;;2.08;0.98;;;13.60;99.90;;;;;;5020769;28;20033;-74
2022/07/18 02:35:37;;;;;;;2.72;1.10;;;13.50;99.90;;;;;;5019336;28;20025;-75
2022/07/18 02:38:03;;;;;;;2.90;0.85;;;13.50;99.90;;;;;;5019611;28;20045;-74
2022/07/18 02:40:28;;;;;;;2.88;1.23;;;13.50;99.90;;;;;;5020179;28;20116;-74
2022/07/18 02:42:54;;;;;;;2.60;0.80;;;13.40;99.90;;;;;;4999504;28;20120;-74
2022/07/18 02:45:20;;;;;;;1.95;0.70;;;13.50;99.90;;;;;;5018876;28;20034;-74
2022/07/18 02:47:45;;;;;;;2.38;0.77;;;13.40;99.90;;;;;;5018604;28;20422;-74
2022/07/18 02:50:12;;;;;;;2.05;0.75;;;13.40;99.90;;;;;;5015991;28;20072;-74
2022/07/18 02:52:39;;;;;;;2.70;0.90;;;13.30;99.90;;;;;;4994890;28;20038;-74
2022/07/18 02:55:06;;;;;;;2.85;1.10;;;13.30;99.90;;;;;;5015494;28;20485;-75
2022/07/18 02:57:31;;;;;;;2.22;0.85;;;13.30;99.90;;;;;;5019688;28;20290;-75
2022/07/18 02:59:57;;;;;;;2.75;0.90;;;13.30;99.90;;;;;;5017909;28;20304;-74
2022/07/18 03:02:23;;;;;;;2.63;0.80;;;13.20;99.90;;;;;;4997679;28;20551;-74
2022/07/18 03:04:49;;;;;;;2.05;0.90;;;13.20;99.90;;;;;;5016879;28;20279;-75
2022/07/18 03:07:14;;;;;;;3.67;1.25;;;13.20;99.90;;;;;;5002727;28;20029;-74
2022/07/18 03:09:40;;;;;;;4.85;1.30;;;13.20;99.90;;;;;;5018941;28;20351;-74
2022/07/18 03:12:06;;;;;;;3.15;1.00;;;13.20;99.90;;;;;;5014647;28;20033;-77
2022/07/18 03:14:32;;;;;;;3.47;1.10;;;13.20;99.90;;;;;;5002385;28;20042;-74
2022/07/18 03:16:58;;;;;;;3.00;1.05;;;13.10;99.90;;;;;;5017247;28;20026;-74
2022/07/18 03:19:23;;;;;;;3.55;1.25;;;13.10;99.90;;;;;;5018012;28;20152;-75
2022/07/18 03:21:49;;;;;;;3.85;1.20;;;13.10;99.90;;;;;;5017105;28;20474;-74
2022/07/18 03:24:15;;;;;;;3.95;1.23;;;13.10;99.90;;;;;;5019912;28;20041;-73
2022/07/18 03:26:41;;;;;;;2.90;0.90;;;13.10;99.90;;;;;;5014345;28;20033;-76
2022/07/18 03:29:07;;;;;;;2.33;0.93;;;13.00;99.90;;;;;;5018998;28;20038;-74
2022/07/18 03:31:32;;;;;;;3.63;1.45;;;13.10;99.90;;;;;;5017709;28;20033;-74
2022/07/18 03:33:59;;;;;;;2.72;1.40;;;13.00;99.90;;;;;;5018782;28;20022;-74
2022/07/18 03:36:24;;;;;;;2.60;1.00;;;13.00;99.90;;;;;;5018501;28;20037;-74
2022/07/18 03:38:50;;;;;;;3.45;1.10;;;13.00;99.90;;;;;;5016639;28;20049;-74
2022/07/18 03:41:16;;;;;;;3.55;0.93;;;13.00;99.90;;;;;;5019357;28;20108;-74
2022/07/18 03:43:41;;;;;;;3.45;1.02;;;13.00;99.90;;;;;;5018748;28;20509;-75
2022/07/18 03:46:08;;;;;;;2.22;0.90;;;13.10;99.90;;;;;;5018488;28;20507;-74
2022/07/18 03:48:34;;;;;;;3.80;1.10;;;13.10;99.90;;;;;;5018566;28;20098;-74
2022/07/18 03:51:00;;;;;;;3.80;1.17;;;13.00;99.90;;;;;;5017820;28;20025;-79
2022/07/18 03:53:26;;;;;;;2.83;1.17;;;13.00;99.90;;;;;;5017039;28;20107;-74
2022/07/18 03:55:52;;;;;;;3.47;1.63;;;13.00;99.90;;;;;;4990796;28;20069;-75
2022/07/18 03:58:18;;;;;;;2.63;1.10;;;13.00;99.90;;;;;;5016569;28;20029;-74
2022/07/18 04:00:43;;;;;;;2.80;0.85;;;13.10;99.90;;;;;;5010779;28;20470;-75
2022/07/18 04:03:09;;;;;;;3.08;1.13;;;13.10;99.90;;;;;;5002652;28;20041;-75
2022/07/18 04:05:35;;;;;;;2.90;1.30;;;13.20;99.90;;;;;;5016543;28;20041;-74
2022/07/18 04:08:00;;;;;;;3.42;1.08;;;13.10;99.90;;;;;;5014682;28;20386;-74
2022/07/18 04:10:26;;;;;;;2.25;0.90;;;13.10;99.90;;;;;;4998544;28;20038;-73
2022/07/18 04:12:53;;;;;;;3.63;1.05;;;13.20;99.90;;;;;;5012343;28;20041;-74
2022/07/18 04:15:21;;;;;;;2.28;1.15;;;13.20;99.90;;;;;;4999393;28;20568;-74
2022/07/18 04:17:47;;;;;;;2.63;1.10;;;13.20;99.90;;;;;;5010041;28;20036;-74
2022/07/18 04:20:14;;;;;;;4.05;1.30;;;13.30;99.90;;;;;;5010746;28;20034;-74
2022/07/18 04:22:45;;;;;;;2.75;1.00;;;13.30;99.90;;;;;;5010892;28;20492;-74
2022/07/18 04:25:11;;;;;;;5.10;0.88;;;13.30;99.90;;;;;;5016923;28;20135;-74
2022/07/18 04:27:37;;;;;;;2.75;1.10;;;13.30;99.90;;;;;;5017163;28;20041;-75
2022/07/18 04:30:03;;;;;;;2.97;1.10;;;13.30;99.90;;;;;;5016793;28;20036;-74
2022/07/18 04:32:29;;;;;;;2.70;1.30;;;13.40;99.90;;;;;;5018751;28;20116;-74
2022/07/18 04:34:55;;;;;;;3.15;1.20;;;13.40;99.90;;;;;;5019181;28;20053;-75
2022/07/18 04:37:20;;;;;;;3.78;1.23;;;13.50;99.90;;;;;;5019367;28;20310;-74
2022/07/18 04:39:46;;;;;;;3.15;1.38;;;13.60;99.90;;;;;;5021006;28;20037;-74
2022/07/18 04:42:12;;;;;;;4.95;1.40;;;13.60;99.90;;;;;;5022512;28;20037;-75
2022/07/18 04:44:37;;;;;;;2.75;1.50;;;13.70;99.90;;;;;;5003676;28;20044;-74
2022/07/18 04:47:03;;;;;;;2.50;1.30;;;13.90;99.90;;;;;;5017592;28;20120;-74
2022/07/18 04:49:29;;;;;;;3.45;1.85;;;14.00;99.90;;;;;;5002415;28;20179;-75
2022/07/18 04:51:54;;;;;;;3.88;1.58;;;14.20;99.90;;;;;;5001832;28;20049;-75
2022/07/18 04:54:20;;;;;;;4.22;1.73;;;14.30;99.90;;;;;;5021171;28;20037;-75
2022/07/18 04:56:46;;;;;;;4.03;1.27;;;14.50;99.90;;;;;;5019919;28;20485;-75
2022/07/18 04:59:11;;;;;;;2.72;1.50;;;14.70;99.90;;;;;;5017995;28;20179;-74
2022/07/18 05:01:37;;;;;;;3.00;1.65;;;14.90;99.90;;;;;;5003080;28;20124;-75
2022/07/18 05:04:03;;;;;;;2.97;1.20;;;15.00;99.90;;;;;;5019675;28;20215;-74
2022/07/18 05:06:29;;;;;;;3.50;1.95;;;15.20;99.90;;;;;;5014372;28;20030;-74
2022/07/18 05:08:54;;;;;;;3.35;1.38;;;15.40;99.90;;;;;;5018558;28;20509;-75
2022/07/18 05:11:20;;;;;;;4.13;1.23;;;15.50;99.90;;;;;;5017889;28;20033;-74
2022/07/18 05:13:45;;;;;;;2.78;1.17;;;15.70;99.90;;;;;;5020496;28;20525;-74
2022/07/18 05:16:11;;;;;;;2.78;1.00;;;15.80;99.90;;;;;;5002003;28;20045;-74
2022/07/18 05:18:37;;;;;;;2.70;1.20;;;16.00;99.90;;;;;;5035368;28;20109;-75
2022/07/18 05:21:03;;;;;;;3.38;1.08;;;16.20;99.90;;;;;;4987687;28;20705;-75
2022/07/18 05:23:28;;;;;;;2.70;0.88;;;16.30;99.90;;;;;;5008819;28;20092;-74
2022/07/18 05:25:54;;;;;;;3.38;0.90;;;16.50;99.90;;;;;;5000350;28;20418;-74
2022/07/18 05:28:19;;;;;;;2.42;0.70;;;16.60;99.90;;;;;;5018390;28;20508;-74
2022/07/18 05:30:45;;;;;;;2.80;0.60;;;16.70;99.90;;;;;;5015536;28;20552;-75
2022/07/18 05:33:11;;;;;;;1.98;0.70;;;16.80;99.90;;;;;;5017912;28;20120;-75
2022/07/18 05:35:37;;;;;;;2.20;0.90;;;16.90;99.90;;;;;;5018708;28;20497;-75
2022/07/18 05:38:02;;;;;;;2.78;0.70;;;17.00;99.90;;;;;;5017734;28;20041;-75
2022/07/18 05:40:28;;;;;;;2.10;0.73;;;17.10;99.90;;;;;;5017471;28;20466;-75
2022/07/18 05:42:54;;;;;;;1.80;0.60;;;17.20;99.90;;;;;;5018647;28;20107;-74
2022/07/18 05:45:23;;;;;;;2.55;0.60;;;17.30;99.90;;;;;;5019032;28;20049;-74
2022/07/18 05:47:48;;;;;;;2.03;0.60;;;17.40;99.90;;;;;;5016995;28;20033;-75
2022/07/18 05:50:14;;;;;;;2.20;0.60;;;17.30;99.90;;;;;;5000964;28;20629;-74
2022/07/18 05:52:40;;;;;;;2.05;0.63;;;17.20;99.90;;;;;;4992008;28;20082;-74
2022/07/18 05:55:07;;;;;;;2.03;0.77;;;17.30;99.90;;;;;;4999401;28;20120;-75
2022/07/18 05:57:33;;;;;;;2.58;0.60;;;17.20;99.90;;;;;;5001033;28;20095;-75
2022/07/18 05:59:58;;;;;;;3.00;0.57;;;17.30;99.90;;;;;;4987967;28;20038;-74
2022/07/18 06:02:24;;;;;;;2.03;0.70;;;17.30;99.90;;;;;;5003810;28;20040;-75
2022/07/18 06:04:50;;;;;;;2.95;0.60;;;17.20;99.90;;;;;;5006868;28;20037;-74
2022/07/18 06:07:15;;;;;;;2.15;0.65;;;17.20;99.90;;;;;;4994967;28;20030;-74
2022/07/18 06:09:41;;;;;;;4.03;0.60;;;17.30;99.90;;;;;;5016241;28;20057;-75
2022/07/18 06:12:08;;;;;;;2.80;0.85;;;17.60;99.90;;;;;;5016390;28;20045;-75
2022/07/18 06:14:34;;;;;;;2.10;0.73;;;18.20;99.90;;;;;;5018264;28;20033;-75
2022/07/18 06:16:59;;;;;;;3.08;0.50;;;18.70;99.90;;;;;;5026873;28;20029;-75
2022/07/18 06:19:25;;;;;;;1.30;0.40;;;19.10;99.90;;;;;;5020381;28;20025;-74
2022/07/18 06:21:51;;;;;;;2.13;0.50;;;19.40;99.90;;;;;;5016832;28;20363;-74
2022/07/18 06:24:17;;;;;;;2.17;0.52;;;19.60;99.90;;;;;;5014844;28;20037;-75
2022/07/18 06:26:42;;;;;;;2.47;0.60;;;19.90;99.90;;;;;;5016119;28;20071;-74
2022/07/18 06:29:08;;;;;;;2.97;0.50;;;19.90;99.90;;;;;;5000129;28;20132;-75
2022/07/18 06:31:34;;;;;;;1.80;0.40;;;19.80;99.90;;;;;;5018312;28;20695;-76
2022/07/18 06:33:59;;;;;;;2.03;0.50;;;19.80;99.90;;;;;;5017052;28;20115;-75
2022/07/18 06:36:25;;;;;;;2.10;0.40;;;19.90;99.90;;;;;;5011406;28;20695;-75
2022/07/18 06:38:51;;;;;;;2.00;0.40;;;20.00;99.90;;;;;;5020491;28;20056;-75
2022/07/18 06:41:18;;;;;;;1.85;0.50;;;20.50;99.90;;;;;;5020715;28;20097;-76
2022/07/18 06:43:44;;;;;;;2.13;0.40;;;21.00;99.90;;;;;;5026512;28;20121;-75
2022/07/18 06:46:10;;;;;;;1.15;0.30;;;21.40;99.90;;;;;;5022974;28;20029;-76
2022/07/18 06:48:36;;;;;;;1.17;0.40;;;21.60;99.90;;;;;;5026312;28;20455;-76
2022/07/18 06:51:04;;;;;;;2.05;0.40;;;21.60;99.90;;;;;;5026423;28;20111;-76
2022/07/18 06:53:30;;;;;;;2.22;0.30;;;22.00;99.90;;;;;;5023614;28;20045;-76
2022/07/18 06:55:56;;;;;;;0.73;0.20;;;22.10;99.90;;;;;;5024719;28;20437;-76
2022/07/18 06:58:22;;;;;;;1.73;0.30;;;22.40;99.90;;;;;;5020189;28;20083;-75
2022/07/18 07:00:48;;;;;;;1.27;0.30;;;22.60;99.90;;;;;;5025299;28;20569;-75
2022/07/18 07:03:13;;;;;;;0.98;0.30;;;22.70;99.90;;;;;;5021797;28;20029;-76
2022/07/18 07:05:39;;;;;;;2.55;0.35;;;23.00;99.90;;;;;;5013790;28;20063;-76
2022/07/18 07:08:05;;;;;;;1.17;0.20;;;23.10;99.90;;;;;;5021004;28;20038;-75
2022/07/18 07:10:30;;;;;;;1.55;0.30;;;23.40;99.90;;;;;;5021492;28;20071;-75
2022/07/18 07:12:56;;;;;;;1.20;0.20;;;23.40;99.90;;;;;;5010064;28;20481;-75
2022/07/18 07:15:23;;;;;;;3.42;0.25;;;23.50;99.90;;;;;;5015283;28;20061;-75
2022/07/18 07:17:50;;;;;;;1.95;0.30;;;23.60;99.90;;;;;;5021311;28;20105;-77
2022/07/18 07:20:18;;;;;;;0.90;0.20;;;23.80;99.90;;;;;;5021636;28;20108;-76
2022/07/18 07:22:45;;;;;;;0.95;0.30;;;23.90;99.90;;;;;;5021497;28;20033;-76
2022/07/18 07:25:12;;;;;;;2.92;0.30;;;24.10;99.90;;;;;;4994153;28;20395;-76
2022/07/18 07:27:37;;;;;;;2.53;0.20;;;24.00;99.90;;;;;;5023041;28;20493;-76
2022/07/18 07:30:04;;;;;;;1.20;0.25;;;24.30;99.90;;;;;;5023177;28;20033;-76
2022/07/18 07:32:34;;;;;;;3.30;0.40;;;24.50;99.90;;;;;;5000463;28;20030;-76
2022/07/18 07:34:59;;;;;;;1.58;0.30;;;24.70;99.90;;;;;;5020587;28;20076;-77
2022/07/18 07:37:25;;;;;;;1.77;0.30;;;24.90;99.90;;;;;;5021074;28;20103;-76
2022/07/18 07:39:51;;;;;;;2.08;0.40;;;24.60;99.90;;;;;;5021411;28;20470;-76
2022/07/18 07:42:16;;;;;;;1.58;0.32;;;24.20;99.90;;;;;;5014388;28;20448;-75
2022/07/18 07:44:42;;;;;;;2.45;0.32;;;24.60;99.90;;;;;;5015620;28;20367;-76
2022/07/18 07:47:08;;;;;;;0.82;0.30;;;25.40;99.90;;;;;;4998283;28;20477;-76
2022/07/18 07:49:34;;;;;;;2.38;0.20;;;25.30;99.90;;;;;;5013971;28;20159;-76
2022/07/18 07:52:00;;;;;;;2.63;0.35;;;25.70;99.90;;;;;;5011070;28;20068;-76
2022/07/18 07:54:26;;;;;;;2.55;0.30;;;25.40;99.90;;;;;;5013064;28;20037;-76
2022/07/18 07:56:52;;;;;;;1.27;0.20;;;25.60;99.90;;;;;;5011192;28;20032;-77
2022/07/18 07:59:17;;;;;;;1.40;0.30;;;26.10;99.90;;;;;;5010939;28;20034;-76
2022/07/18 08:01:43;;;;;;;1.20;0.30;;;26.10;99.90;;;;;;5008045;28;20025;-76
2022/07/18 08:04:09;;;;;;;0.82;0.20;;;26.40;99.90;;;;;;5013034;28;22061;-76
2022/07/18 08:06:34;;;;;;;1.17;0.20;;;26.30;99.90;;;;;;5012567;28;20124;-76
2022/07/18 08:09:00;;;;;;;1.98;0.30;;;26.40;99.90;;;;;;4996240;28;20048;-77
2022/07/18 08:11:26;;;;;;;1.00;0.28;;;26.80;99.90;;;;;;5007182;28;20208;-78
2022/07/18 08:13:53;;;;;;;0.80;0.20;;;26.90;99.90;;;;;;5013556;28;20161;-78
2022/07/18 08:16:19;;;;;;;0.60;0.20;;;27.20;99.90;;;;;;5016208;28;20033;-77
2022/07/18 08:18:45;;;;;;;1.20;0.25;;;27.10;99.90;;;;;;5019099;28;20040;-77
2022/07/18 08:21:10;;;;;;;1.13;0.20;;;27.20;99.90;;;;;;5014972;28;20130;-76
2022/07/18 08:23:36;;;;;;;2.22;0.22;;;27.40;99.90;;;;;;5017257;28;20029;-77
2022/07/18 08:26:02;;;;;;;1.85;0.20;;;27.60;99.90;;;;;;5016941;28;20033;-78
2022/07/18 08:28:27;;;;;;;0.98;0.20;;;27.50;99.90;;;;;;5007796;28;20048;-77
2022/07/18 08:30:53;;;;;;;1.75;0.20;;;27.60;99.90;;;;;;5016698;28;20025;-76
2022/07/18 08:33:19;;;;;;;1.73;0.20;;;27.80;99.90;;;;;;5013277;28;20060;-76
2022/07/18 08:35:44;;;;;;;1.45;0.20;;;28.20;99.90;;;;;;5014975;28;20026;-76
2022/07/18 08:38:10;;;;;;;2.45;0.20;;;28.50;99.90;;;;;;5014091;28;20143;-75
2022/07/18 08:40:37;;;;;;;2.17;0.20;;;28.40;99.90;;;;;;5013745;28;20025;-76
2022/07/18 08:43:03;;;;;;;1.63;0.20;;;27.50;99.90;;;;;;5012739;28;20099;-75
2022/07/18 08:45:29;;;;;;;1.33;0.20;;;27.80;99.90;;;;;;5010473;28;20966;-75
2022/07/18 08:47:55;;;;;;;0.95;0.20;;;28.20;99.90;;;;;;5012045;28;20037;-77
2022/07/18 08:50:21;;;;;;;1.00;0.20;;;28.10;99.90;;;;;;5013511;28;20025;-76
2022/07/18 08:52:48;;;;;;;1.90;0.20;;;27.80;99.90;;;;;;5011950;28;20128;-76
2022/07/18 08:55:15;;;;;;;1.80;0.20;;;28.30;99.90;;;;;;5007102;28;20029;-74
2022/07/18 08:57:40;;;;;;;2.30;0.20;;;28.40;99.90;;;;;;5011921;28;20125;-75
2022/07/18 09:00:08;;;;;;;1.73;0.30;;;28.80;99.90;;;;;;5001197;28;20120;-75
2022/07/18 09:02:34;;;;;;;1.45;0.20;;;29.10;99.90;;;;;;5008240;28;20034;-75
2022/07/18 09:05:02;;;;;;;1.65;0.20;;;29.20;99.90;;;;;;5011911;28;20534;-76
2022/07/18 09:07:34;;;;;;;0.95;0.20;;;28.70;99.90;;;;;;5012530;28;20083;-76
2022/07/18 09:10:02;;;;;;;2.03;0.20;;;28.70;99.90;;;;;;4996778;28;20028;-76
2022/07/18 09:12:31;;;;;;;2.25;0.30;;;29.00;99.90;;;;;;4991735;28;20656;-76
2022/07/18 09:15:03;;;;;;;1.48;0.20;;;29.30;99.90;;;;;;4996590;28;20033;-76
2022/07/18 09:17:29;;;;;;;1.10;0.13;;;29.90;99.90;;;;;;5008292;28;20044;-77
2022/07/18 09:20:16;;;;;;;1.13;0.20;;;30.20;99.90;;;;;;5006201;28;20037;-75
2022/07/18 09:22:47;;;;;;;2.38;0.20;;;29.80;99.90;;;;;;5019956;28;20033;-75
2022/07/18 09:25:20;;;;;;;0.82;0.10;;;29.40;99.90;;;;;;5014925;28;20670;-76
2022/07/18 09:27:48;;;;;;;1.30;0.20;;;30.00;99.90;;;;;;5013895;28;20030;-76
2022/07/18 09:30:28;;;;;;;1.40;0.10;;;30.10;99.90;;;;;;5021439;28;20037;-76
2022/07/18 09:33:02;;;;;;;1.77;0.10;;;30.70;99.90;;;;;;5026989;28;20076;-76
2022/07/18 09:35:33;;;;;;;0.93;0.20;;;31.00;99.90;;;;;;5002180;28;20034;-75
2022/07/18 09:38:03;;;;;;;0.77;0.15;;;31.10;99.90;;;;;;4983237;28;20583;-75
2022/07/18 09:40:38;;;;;;;0.77;0.10;;;30.90;99.90;;;;;;5016166;28;20450;-76
2022/07/18 09:43:06;;;;;;;0.45;0.10;;;30.90;99.90;;;;;;5019494;28;20042;-75
2022/07/18 09:45:36;;;;;;;1.80;0.10;;;31.00;99.90;;;;;;5013097;28;20030;-76
2022/07/18 09:48:10;;;;;;;1.10;0.10;;;31.50;99.90;;;;;;5025063;28;20063;-75
2022/07/18 09:50:55;;;;;;;0.75;0.10;;;31.70;99.10;;;;;;5000235;28;20569;-76
2022/07/18 09:53:31;;;;;;;1.55;0.20;;;31.50;99.90;;;;;;5016223;28;20037;-76
2022/07/18 09:56:06;;;;;;;0.70;0.17;;;30.70;99.90;;;;;;5023340;28;20029;-76
2022/07/18 09:58:56;;;;;;;0.70;0.20;;;30.30;99.30;;;;;;5024454;28;20037;-78
2022/07/18 10:01:23;;;;;;;2.03;0.10;;;30.80;99.90;;;;;;5024447;28;20028;-77
2022/07/18 10:03:49;;;;;;;1.77;0.10;;;31.40;99.90;;;;;;5024030;28;20079;-76
2022/07/18 10:06:16;;;;;;;1.40;0.20;;;31.20;99.70;;;;;;5016464;28;20029;-77
2022/07/18 10:08:42;;;;;;;1.55;0.10;;;30.80;99.60;;;;;;5022476;28;20489;-77
2022/07/18 10:11:08;;;;;;;0.77;0.15;;;31.00;99.70;;;;;;5023728;28;20067;-75
2022/07/18 10:13:35;;;;;;;0.50;0.20;;;30.80;99.90;;;;;;5025613;28;20037;-75
2022/07/18 10:16:01;;;;;;;1.20;0.20;;;31.10;99.90;;;;;;5004280;28;20068;-76
2022/07/18 10:18:32;;;;;;;1.33;0.10;;;31.50;99.20;;;;;;5001201;28;20547;-76
2022/07/18 10:21:08;;;;;;;1.55;0.17;;;31.90;99.90;;;;;;4973552;28;20751;-76
2022/07/18 10:23:45;;;;;;;0.43;0.10;;;32.00;98.70;;;;;;5000618;28;20037;-76
2022/07/18 10:26:22;;;;;;;0.85;0.20;;;30.90;98.40;;;;;;5016924;28;20121;-76
2022/07/18 10:29:00;;;;;;;0.65;0.10;;;30.60;98.90;;;;;;5023730;28;20037;-75
2022/07/18 10:31:30;;;;;;;0.50;0.10;;;30.70;99.20;;;;;;5022253;28;20041;-76
2022/07/18 10:34:09;;;;;;;0.45;0.10;;;30.40;99.90;;;;;;5016153;28;20056;-76
2022/07/18 10:36:38;;;;;;;1.27;0.10;;;30.70;99.50;;;;;;5016230;28;20108;-75
2022/07/18 10:39:08;;;;;;;0.50;0.10;;;30.90;99.80;;;;;;5003860;28;20103;-75
2022/07/18 10:41:43;;;;;;;1.20;0.10;;;31.50;99.90;;;;;;5001128;28;20128;-75
2022/07/18 10:47:23;;;;;;;0.22;0.10;;;31.60;97.10;;;;;;5011876;28;20042;-75
2022/07/18 10:49:52;;;;;;;0.82;0.10;;;31.30;96.60;;;;;;5004860;28;21316;-75
2022/07/18 10:52:26;;;;;;;0.77;0.13;;;32.00;97.70;;;;;;4993384;28;20041;-75
2022/07/18 10:55:04;;;;;;;0.75;0.15;;;32.50;97.70;;;;;;5005803;28;20128;-75
2022/07/18 10:57:40;;;;;;;0.70;0.10;;;32.50;96.30;;;;;;5012945;28;20061;-76
2022/07/18 11:00:10;;;;;;;0.93;0.10;;;32.80;96.60;;;;;;5020648;28;20037;-75
2022/07/18 11:02:36;;;;;;;1.70;0.10;;;32.70;96.40;;;;;;5018138;28;20034;-75
2022/07/18 11:05:03;;;;;;;0.50;0.10;;;32.10;95.80;;;;;;5021059;28;20095;-76
2022/07/18 11:07:28;;;;;;;1.85;0.10;;;31.20;96.30;;;;;;5003197;28;20037;-76
2022/07/18 11:09:54;;;;;;;1.75;0.10;;;30.70;96.70;;;;;;5025220;28;20387;-76
2022/07/18 11:12:25;;;;;;;0.82;0.10;;;31.00;97.40;;;;;;5015539;28;20025;-76
2022/07/18 11:15:09;;;;;;;1.45;0.10;;;31.30;95.50;;;;;;5012302;28;20115;-75
2022/07/18 11:17:53;;;;;;;1.90;0.10;;;31.50;96.50;;;;;;4977712;28;20462;-74
2022/07/18 11:20:41;;;;;;;0.90;0.10;;;32.10;97.20;;;;;;4991716;28;20037;-75
2022/07/18 11:23:20;;;;;;;0.32;0.10;;;32.90;96.80;;;;;;4966085;28;20045;-76
2022/07/18 11:26:04;;;;;;;1.33;0.10;;;33.40;95.70;;;;;;5014000;28;20489;-75
2022/07/18 11:28:30;;;;;;;0.45;0.10;;;33.20;95.10;;;;;;5009092;28;20140;-75
2022/07/18 11:31:07;;;;;;;1.55;0.10;;;32.70;94.80;;;;;;4997745;28;20762;-75
2022/07/18 11:33:39;;;;;;;1.45;0.10;;;32.60;96.30;;;;;;5014073;28;20079;-76
2022/07/18 11:36:12;;;;;;;0.32;0.10;;;33.10;96.40;;;;;;5016673;28;20044;-76
2022/07/18 11:38:45;;;;;;;0.73;0.10;;;32.80;96.00;;;;;;5019755;28;20132;-76
2022/07/18 11:41:10;;;;;;;0.80;0.17;;;33.20;95.90;;;;;;5016975;28;20044;-76
2022/07/18 11:43:36;;;;;;;0.35;0.10;;;33.60;95.60;;;;;;5018758;28;20478;-76
2022/07/18 11:46:08;;;;;;;1.13;0.20;;;33.30;95.60;;;;;;5015552;28;20022;-75
2022/07/18 11:48:35;;;;;;;2.53;0.10;;;33.80;95.30;;;;;;5013274;28;20025;-76
2022/07/18 11:51:02;;;;;;;1.08;0.15;;;33.40;95.40;;;;;;4998021;28;20029;-75
2022/07/18 11:53:29;;;;;;;1.42;0.13;;;33.30;96.00;;;;;;5012068;28;20136;-75
2022/07/18 11:55:56;;;;;;;0.70;0.10;;;33.20;95.60;;;;;;4995860;28;20086;-75
2022/07/18 11:58:22;;;;;;;0.52;0.10;;;33.30;95.40;;;;;;5016408;28;20029;-78
2022/07/18 12:00:48;;;;;;;0.40;0.10;;;33.60;95.70;;;;;;5023436;28;20141;-75
2022/07/18 12:03:20;;;;;;;0.80;0.10;;;34.10;96.10;;;;;;5013752;28;20037;-75
2022/07/18 12:05:52;;;;;;;0.50;0.10;;;33.70;95.60;;;;;;4997950;28;20596;-75
2022/07/18 12:08:39;;;;;;;0.70;0.10;;;34.20;95.20;;;;;;5030572;28;20026;-75
2022/07/18 12:11:09;;;;;;;0.65;0.10;;;34.10;96.00;;;;;;5022709;28;20029;-76
2022/07/18 12:13:55;;;;;;;0.50;0.10;;;33.90;95.40;;;;;;5022404;28;20042;-76
2022/07/18 12:16:27;;;;;;;0.40;0.10;;;33.70;95.00;;;;;;5004478;28;20053;-75
2022/07/18 12:18:55;;;;;;;0.45;0.20;;;33.80;95.90;;;;;;5009674;28;20046;-76
2022/07/18 12:21:21;;;;;;;1.25;0.20;;;34.00;95.10;;;;;;4999203;28;20054;-75
2022/07/18 12:23:46;;;;;;;0.40;0.10;;;33.50;94.20;;;;;;4998369;28;20056;-76
2022/07/18 12:26:31;;;;;;;0.82;0.20;;;33.60;95.00;;;;;;5004298;28;20871;-76
2022/07/18 12:29:07;;;;;;;1.35;0.45;;;33.00;95.00;;;;;;5007492;28;20402;-76
2022/07/18 12:31:46;;;;;;;1.23;0.20;;;33.80;95.50;;;;;;5023164;28;20036;-78
2022/07/18 12:34:14;;;;;;;0.90;0.20;;;33.90;94.80;;;;;;5011851;28;20033;-76
2022/07/18 12:36:51;;;;;;;0.75;0.20;;;33.40;94.10;;;;;;4997757;28;20440;-77
2022/07/18 12:39:32;;;;;;;1.50;0.30;;;32.90;94.50;;;;;;5016876;28;20071;-75
2022/07/18 12:41:59;;;;;;;1.58;0.30;;;32.40;94.10;;;;;;4997714;28;20466;-75
2022/07/18 12:44:25;;;;;;;0.60;0.20;;;32.20;93.90;;;;;;5015238;28;20037;-75
2022/07/18 12:46:51;;;;;;;1.00;0.15;;;32.70;94.50;;;;;;5016150;28;20057;-76
2022/07/18 12:49:17;;;;;;;0.35;0.10;;;33.50;94.90;;;;;;5014986;28;20117;-76
2022/07/18 12:51:43;;;;;;;1.02;0.20;;;33.50;94.70;;;;;;5017736;28;20049;-76
2022/07/18 12:54:08;;;;;;;0.60;0.20;;;33.20;94.60;;;;;;5014523;28;20048;-76
2022/07/18 12:56:34;;;;;;;0.40;0.10;;;33.70;94.20;;;;;;5012581;28;20029;-76